sensor_id;sensor_type;location;lat;lon;timestamp;temperature;humidity
18934;DHT22;9599;53.706;10.384;2022-12-29T00:00:06;8.30;99.90
18934;DHT22;9599;53.706;10.384;2022-12-29T00:02:42;8.30;99.90
18934;DHT22;9599;53.706;10.384;2022-12-29T00:05:10;8.30;99.90
18934;DHT22;9599;53.706;10.384;2022-12-29T00:07:38;8.30;99.90
18934;DHT22;9599;53.706;10.384;2022-12-29T00:10:06;8.40;99.90
18934;DHT22;9599;53.706;10.384;2022-12-29T00:12:35;8.40;99.90
18934;DHT22;9599;53.706;10.384;2022-12-29T00:15:20;8.40;99.90
18934;DHT22;9599;53.706;10.384;2022-12-29T00:18:06;8.40;99.90
18934;DHT22;9599;53.706;10.384;2022-12-29T00:20:35;8.40;99.90
18934;DHT22;9599;53.706;10.384;2022-12-29T00:23:21;8.40;99.90
18934;DHT22;9599;53.706;10.384;2022-12-29T00:26:12;8.50;99.90
18934;DHT22;9599;53.706;10.384;2022-12-29T00:28:59;8.50;99.90
18934;DHT22;9599;53.706;10.384;2022-12-29T00:31:52;8.50;99.90
18934;DHT22;9599;53.706;10.384;2022-12-29T00:34:39;8.60;99.90
18934;DHT22;9599;53.706;10.384;2022-12-29T00:37:25;8.60;99.90
18934;DHT22;9599;53.706;10.384;2022-12-29T00:40:08;8.60;99.90
18934;DHT22;9599;53.706;10.384;2022-12-29T00:42:53;8.60;99.90
18934;DHT22;9599;53.706;10.384;2022-12-29T00:45:40;8.70;99.90
18934;DHT22;9599;53.706;10.384;2022-12-29T00:48:08;8.70;99.90
18934;DHT22;9599;53.706;10.384;2022-12-29T00:50:37;8.70;99.90
18934;DHT22;9599;53.706;10.384;2022-12-29T00:53:04;8.70;99.90
18934;DHT22;9599;53.706;10.384;2022-12-29T00:55:36;8.70;99.90
18934;DHT22;9599;53.706;10.384;2022-12-29T00:58:04;8.80;99.90
18934;DHT22;9599;53.706;10.384;2022-12-29T01:00:32;8.80;99.90
18934;DHT22;9599;53.706;10.384;2022-12-29T01:03:01;8.90;99.90
18934;DHT22;9599;53.706;10.384;2022-12-29T01:05:29;8.90;99.90
18934;DHT22;9599;53.706;10.384;2022-12-29T01:07:58;8.90;99.90
18934;DHT22;9599;53.706;10.384;2022-12-29T01:10:26;8.90;99.90
18934;DHT22;9599;53.706;10.384;2022-12-29T01:12:53;8.90;99.90
18934;DHT22;9599;53.706;10.384;2022-12-29T01:15:21;8.90;99.90
18934;DHT22;9599;53.706;10.384;2022-12-29T01:17:49;9.00;99.90
18934;DHT22;9599;53.706;10.384;2022-12-29T01:20:18;9.00;99.90
18934;DHT22;9599;53.706;10.384;2022-12-29T01:22:45;9.00;99.90
18934;DHT22;9599;53.706;10.384;2022-12-29T01:25:15;9.00;99.90
18934;DHT22;9599;53.706;10.384;2022-12-29T01:27:43;9.00;99.90
18934;DHT22;9599;53.706;10.384;2022-12-29T01:30:12;9.00;99.90
18934;DHT22;9599;53.706;10.384;2022-12-29T01:32:40;9.00;99.90
18934;DHT22;9599;53.706;10.384;2022-12-29T01:35:08;9.00;99.90
18934;DHT22;9599;53.706;10.384;2022-12-29T01:37:37;9.00;99.90
18934;DHT22;9599;53.706;10.384;2022-12-29T01:40:06;9.00;99.90
18934;DHT22;9599;53.706;10.384;2022-12-29T01:42:35;9.00;99.90
18934;DHT22;9599;53.706;10.384;2022-12-29T01:45:04;9.10;99.90
18934;DHT22;9599;53.706;10.384;2022-12-29T01:47:39;9.10;99.90
18934;DHT22;9599;53.706;10.384;2022-12-29T01:50:14;9.10;99.90
18934;DHT22;9599;53.706;10.384;2022-12-29T01:52:51;9.10;99.90
18934;DHT22;9599;53.706;10.384;2022-12-29T01:55:22;9.20;99.90
18934;DHT22;9599;53.706;10.384;2022-12-29T01:57:53;9.10;99.90
18934;DHT22;9599;53.706;10.384;2022-12-29T02:00:23;9.20;99.90
18934;DHT22;9599;53.706;10.384;2022-12-29T02:02:52;9.20;99.90
18934;DHT22;9599;53.706;10.384;2022-12-29T02:05:27;9.20;99.90
18934;DHT22;9599;53.706;10.384;2022-12-29T02:07:55;9.20;99.90
18934;DHT22;9599;53.706;10.384;2022-12-29T02:10:26;9.20;99.90
18934;DHT22;9599;53.706;10.384;2022-12-29T02:12:56;9.20;99.90
18934;DHT22;9599;53.706;10.384;2022-12-29T02:15:35;9.20;99.90
18934;DHT22;9599;53.706;10.384;2022-12-29T02:18:15;9.20;99.90
18934;DHT22;9599;53.706;10.384;2022-12-29T02:24:13;9.20;99.90
18934;DHT22;9599;53.706;10.384;2022-12-29T02:26:54;9.20;99.90
18934;DHT22;9599;53.706;10.384;2022-12-29T02:30:01;9.20;99.90
18934;DHT22;9599;53.706;10.384;2022-12-29T02:32:37;9.30;99.90
18934;DHT22;9599;53.706;10.384;2022-12-29T02:35:10;9.20;99.90
18934;DHT22;9599;53.706;10.384;2022-12-29T02:37:43;9.30;99.90
18934;DHT22;9599;53.706;10.384;2022-12-29T02:40:24;9.30;99.90
18934;DHT22;9599;53.706;10.384;2022-12-29T02:43:01;9.30;99.90
18934;DHT22;9599;53.706;10.384;2022-12-29T02:45:33;9.30;99.90
18934;DHT22;9599;53.706;10.384;2022-12-29T02:48:09;9.30;99.90
18934;DHT22;9599;53.706;10.384;2022-12-29T02:50:43;9.30;99.90
18934;DHT22;9599;53.706;10.384;2022-12-29T02:53:17;9.30;99.90
18934;DHT22;9599;53.706;10.384;2022-12-29T02:56:06;9.30;99.90
18934;DHT22;9599;53.706;10.384;2022-12-29T02:58:33;9.30;99.90
18934;DHT22;9599;53.706;10.384;2022-12-29T03:01:14;9.30;99.90
18934;DHT22;9599;53.706;10.384;2022-12-29T03:03:53;9.30;99.90
18934;DHT22;9599;53.706;10.384;2022-12-29T03:06:33;9.30;99.90
18934;DHT22;9599;53.706;10.384;2022-12-29T03:09:11;9.40;99.90
18934;DHT22;9599;53.706;10.384;2022-12-29T03:11:50;9.40;99.90
18934;DHT22;9599;53.706;10.384;2022-12-29T03:14:47;9.40;99.90
18934;DHT22;9599;53.706;10.384;2022-12-29T03:17:42;9.40;99.90
18934;DHT22;9599;53.706;10.384;2022-12-29T03:20:18;9.40;99.90
18934;DHT22;9599;53.706;10.384;2022-12-29T03:22:51;9.40;99.90
18934;DHT22;9599;53.706;10.384;2022-12-29T03:25:26;9.40;99.90
18934;DHT22;9599;53.706;10.384;2022-12-29T03:28:00;9.40;99.90
18934;DHT22;9599;53.706;10.384;2022-12-29T03:30:34;9.40;99.90
18934;DHT22;9599;53.706;10.384;2022-12-29T03:33:06;9.40;99.90
18934;DHT22;9599;53.706;10.384;2022-12-29T03:35:40;9.50;99.90
18934;DHT22;9599;53.706;10.384;2022-12-29T03:38:15;9.40;99.90
18934;DHT22;9599;53.706;10.384;2022-12-29T03:40:50;9.50;99.90
18934;DHT22;9599;53.706;10.384;2022-12-29T03:43:20;9.40;99.90
18934;DHT22;9599;53.706;10.384;2022-12-29T03:45:48;9.40;99.90
18934;DHT22;9599;53.706;10.384;2022-12-29T03:48:17;9.50;99.90
18934;DHT22;9599;53.706;10.384;2022-12-29T03:50:47;9.50;99.90
18934;DHT22;9599;53.706;10.384;2022-12-29T03:53:16;9.50;99.90
18934;DHT22;9599;53.706;10.384;2022-12-29T03:55:44;9.50;99.90
18934;DHT22;9599;53.706;10.384;2022-12-29T03:58:12;9.50;99.90
18934;DHT22;9599;53.706;10.384;2022-12-29T04:00:57;9.50;99.90
18934;DHT22;9599;53.706;10.384;2022-12-29T04:03:25;9.60;99.90
18934;DHT22;9599;53.706;10.384;2022-12-29T04:05:55;9.60;99.90
18934;DHT22;9599;53.706;10.384;2022-12-29T04:08:24;9.60;99.90
18934;DHT22;9599;53.706;10.384;2022-12-29T04:10:52;9.60;99.90
18934;DHT22;9599;53.706;10.384;2022-12-29T04:13:21;9.60;99.90
18934;DHT22;9599;53.706;10.384;2022-12-29T04:15:51;9.70;99.90
18934;DHT22;9599;53.706;10.384;2022-12-29T04:18:19;9.60;99.90
18934;DHT22;9599;53.706;10.384;2022-12-29T04:20:47;9.60;99.90
18934;DHT22;9599;53.706;10.384;2022-12-29T04:23:31;9.60;99.90
18934;DHT22;9599;53.706;10.384;2022-12-29T04:25:59;9.60;99.90
18934;DHT22;9599;53.706;10.384;2022-12-29T04:28:28;9.60;99.90
18934;DHT22;9599;53.706;10.384;2022-12-29T04:30:56;9.60;99.90
18934;DHT22;9599;53.706;10.384;2022-12-29T04:33:34;9.60;99.90
18934;DHT22;9599;53.706;10.384;2022-12-29T04:36:03;9.60;99.90
18934;DHT22;9599;53.706;10.384;2022-12-29T04:38:33;9.70;99.90
18934;DHT22;9599;53.706;10.384;2022-12-29T04:41:03;9.70;99.90
18934;DHT22;9599;53.706;10.384;2022-12-29T04:43:33;9.70;99.90
18934;DHT22;9599;53.706;10.384;2022-12-29T04:46:04;9.70;99.90
18934;DHT22;9599;53.706;10.384;2022-12-29T04:48:51;9.70;99.90
18934;DHT22;9599;53.706;10.384;2022-12-29T04:51:39;9.70;99.90
18934;DHT22;9599;53.706;10.384;2022-12-29T04:54:10;9.70;99.90
18934;DHT22;9599;53.706;10.384;2022-12-29T04:56:38;9.70;99.90
18934;DHT22;9599;53.706;10.384;2022-12-29T04:59:07;9.70;99.90
18934;DHT22;9599;53.706;10.384;2022-12-29T05:01:35;9.70;99.90
18934;DHT22;9599;53.706;10.384;2022-12-29T05:04:04;9.80;99.90
18934;DHT22;9599;53.706;10.384;2022-12-29T05:06:32;9.80;99.90
18934;DHT22;9599;53.706;10.384;2022-12-29T05:09:00;9.80;99.90
18934;DHT22;9599;53.706;10.384;2022-12-29T05:11:29;9.80;99.90
18934;DHT22;9599;53.706;10.384;2022-12-29T05:13:58;9.90;99.90
18934;DHT22;9599;53.706;10.384;2022-12-29T05:16:26;9.80;99.90
18934;DHT22;9599;53.706;10.384;2022-12-29T05:18:54;9.90;99.90
18934;DHT22;9599;53.706;10.384;2022-12-29T05:21:23;9.90;99.90
18934;DHT22;9599;53.706;10.384;2022-12-29T05:23:51;9.90;99.90
18934;DHT22;9599;53.706;10.384;2022-12-29T05:26:19;9.90;99.90
18934;DHT22;9599;53.706;10.384;2022-12-29T05:28:57;9.90;99.90
18934;DHT22;9599;53.706;10.384;2022-12-29T05:31:26;9.90;99.90
18934;DHT22;9599;53.706;10.384;2022-12-29T05:33:54;9.90;99.90
18934;DHT22;9599;53.706;10.384;2022-12-29T05:36:22;9.90;99.90
18934;DHT22;9599;53.706;10.384;2022-12-29T05:38:56;9.90;99.90
18934;DHT22;9599;53.706;10.384;2022-12-29T05:41:24;9.90;99.90
18934;DHT22;9599;53.706;10.384;2022-12-29T05:44:00;9.90;99.90
18934;DHT22;9599;53.706;10.384;2022-12-29T05:46:32;9.90;99.90
18934;DHT22;9599;53.706;10.384;2022-12-29T05:49:24;9.90;99.90
18934;DHT22;9599;53.706;10.384;2022-12-29T05:52:00;9.80;99.90
18934;DHT22;9599;53.706;10.384;2022-12-29T05:54:28;9.90;99.90
18934;DHT22;9599;53.706;10.384;2022-12-29T05:56:57;9.90;99.90
18934;DHT22;9599;53.706;10.384;2022-12-29T05:59:26;9.90;99.90
18934;DHT22;9599;53.706;10.384;2022-12-29T06:01:54;9.90;99.90
18934;DHT22;9599;53.706;10.384;2022-12-29T06:04:23;9.90;99.90
18934;DHT22;9599;53.706;10.384;2022-12-29T06:06:51;9.90;99.90
18934;DHT22;9599;53.706;10.384;2022-12-29T06:09:27;9.90;99.90
18934;DHT22;9599;53.706;10.384;2022-12-29T06:11:56;10.00;99.90
18934;DHT22;9599;53.706;10.384;2022-12-29T06:14:26;10.00;99.90
18934;DHT22;9599;53.706;10.384;2022-12-29T06:16:54;10.10;99.90
18934;DHT22;9599;53.706;10.384;2022-12-29T06:19:22;10.10;99.90
18934;DHT22;9599;53.706;10.384;2022-12-29T06:21:50;10.10;99.90
18934;DHT22;9599;53.706;10.384;2022-12-29T06:24:19;10.10;99.90
18934;DHT22;9599;53.706;10.384;2022-12-29T06:26:47;10.10;99.90
18934;DHT22;9599;53.706;10.384;2022-12-29T06:29:16;10.10;99.90
18934;DHT22;9599;53.706;10.384;2022-12-29T06:31:47;10.10;99.90
18934;DHT22;9599;53.706;10.384;2022-12-29T06:34:16;10.10;99.90
18934;DHT22;9599;53.706;10.384;2022-12-29T06:36:44;10.10;99.90
18934;DHT22;9599;53.706;10.384;2022-12-29T06:39:11;10.10;99.90
18934;DHT22;9599;53.706;10.384;2022-12-29T06:41:47;10.20;99.90
18934;DHT22;9599;53.706;10.384;2022-12-29T06:44:34;10.20;99.90
18934;DHT22;9599;53.706;10.384;2022-12-29T06:47:06;10.20;99.90
18934;DHT22;9599;53.706;10.384;2022-12-29T06:49:34;10.20;99.90
18934;DHT22;9599;53.706;10.384;2022-12-29T06:52:02;10.20;99.90
18934;DHT22;9599;53.706;10.384;2022-12-29T06:54:38;10.20;99.90
18934;DHT22;9599;53.706;10.384;2022-12-29T06:57:06;10.20;99.90
18934;DHT22;9599;53.706;10.384;2022-12-29T06:59:34;10.20;99.90
18934;DHT22;9599;53.706;10.384;2022-12-29T07:02:02;10.10;99.90
18934;DHT22;9599;53.706;10.384;2022-12-29T07:04:31;10.20;99.90
18934;DHT22;9599;53.706;10.384;2022-12-29T07:07:00;10.10;99.90
18934;DHT22;9599;53.706;10.384;2022-12-29T07:09:27;10.20;99.90
18934;DHT22;9599;53.706;10.384;2022-12-29T07:11:55;10.10;99.90
18934;DHT22;9599;53.706;10.384;2022-12-29T07:14:23;10.10;99.90
18934;DHT22;9599;53.706;10.384;2022-12-29T07:16:51;10.10;99.90
18934;DHT22;9599;53.706;10.384;2022-12-29T07:19:20;10.10;99.90
18934;DHT22;9599;53.706;10.384;2022-12-29T07:21:49;10.10;99.90
18934;DHT22;9599;53.706;10.384;2022-12-29T07:24:17;10.10;99.90
18934;DHT22;9599;53.706;10.384;2022-12-29T07:26:45;10.10;99.90
18934;DHT22;9599;53.706;10.384;2022-12-29T07:29:13;10.00;99.90
18934;DHT22;9599;53.706;10.384;2022-12-29T07:31:41;10.00;99.90
18934;DHT22;9599;53.706;10.384;2022-12-29T07:34:09;10.10;99.90
18934;DHT22;9599;53.706;10.384;2022-12-29T07:36:37;10.20;99.90
18934;DHT22;9599;53.706;10.384;2022-12-29T07:39:07;10.10;99.90
18934;DHT22;9599;53.706;10.384;2022-12-29T07:41:35;10.10;99.90
18934;DHT22;9599;53.706;10.384;2022-12-29T07:44:03;10.20;99.90
18934;DHT22;9599;53.706;10.384;2022-12-29T07:46:55;10.20;99.90
18934;DHT22;9599;53.706;10.384;2022-12-29T07:49:24;10.10;99.90
18934;DHT22;9599;53.706;10.384;2022-12-29T07:51:52;10.10;99.90
18934;DHT22;9599;53.706;10.384;2022-12-29T07:54:22;10.20;99.90
18934;DHT22;9599;53.706;10.384;2022-12-29T07:56:50;10.20;99.90
18934;DHT22;9599;53.706;10.384;2022-12-29T07:59:18;10.20;99.90
18934;DHT22;9599;53.706;10.384;2022-12-29T08:01:46;10.10;99.90
18934;DHT22;9599;53.706;10.384;2022-12-29T08:04:14;10.20;99.90
18934;DHT22;9599;53.706;10.384;2022-12-29T08:06:42;10.20;99.90
18934;DHT22;9599;53.706;10.384;2022-12-29T08:09:12;10.10;99.90
18934;DHT22;9599;53.706;10.384;2022-12-29T08:11:49;10.20;99.90
18934;DHT22;9599;53.706;10.384;2022-12-29T08:14:17;10.20;99.90
18934;DHT22;9599;53.706;10.384;2022-12-29T08:16:45;10.10;99.90
18934;DHT22;9599;53.706;10.384;2022-12-29T08:19:13;10.20;99.90
18934;DHT22;9599;53.706;10.384;2022-12-29T08:21:41;10.10;99.90
18934;DHT22;9599;53.706;10.384;2022-12-29T08:24:09;10.10;99.90
18934;DHT22;9599;53.706;10.384;2022-12-29T08:26:38;10.10;99.90
18934;DHT22;9599;53.706;10.384;2022-12-29T08:29:07;10.10;99.90
18934;DHT22;9599;53.706;10.384;2022-12-29T08:31:35;10.10;99.90
18934;DHT22;9599;53.706;10.384;2022-12-29T08:34:04;10.10;99.90
18934;DHT22;9599;53.706;10.384;2022-12-29T08:36:32;10.10;99.90
18934;DHT22;9599;53.706;10.384;2022-12-29T08:39:00;10.10;99.90
18934;DHT22;9599;53.706;10.384;2022-12-29T08:41:28;10.10;99.90
18934;DHT22;9599;53.706;10.384;2022-12-29T08:43:56;10.10;99.90
18934;DHT22;9599;53.706;10.384;2022-12-29T08:46:25;10.10;99.90
18934;DHT22;9599;53.706;10.384;2022-12-29T08:48:53;10.20;99.90
18934;DHT22;9599;53.706;10.384;2022-12-29T08:51:21;10.20;99.90
18934;DHT22;9599;53.706;10.384;2022-12-29T08:53:51;10.20;99.90
18934;DHT22;9599;53.706;10.384;2022-12-29T08:56:20;10.20;99.90
18934;DHT22;9599;53.706;10.384;2022-12-29T08:58:51;10.30;99.90
18934;DHT22;9599;53.706;10.384;2022-12-29T09:01:20;10.30;99.90
18934;DHT22;9599;53.706;10.384;2022-12-29T09:03:51;10.30;99.90
18934;DHT22;9599;53.706;10.384;2022-12-29T09:06:40;10.30;99.90
18934;DHT22;9599;53.706;10.384;2022-12-29T09:09:08;10.30;99.90
18934;DHT22;9599;53.706;10.384;2022-12-29T09:11:36;10.30;99.90
18934;DHT22;9599;53.706;10.384;2022-12-29T09:14:05;10.30;99.90
18934;DHT22;9599;53.706;10.384;2022-12-29T09:16:33;10.40;99.90
18934;DHT22;9599;53.706;10.384;2022-12-29T09:19:03;10.40;99.90
18934;DHT22;9599;53.706;10.384;2022-12-29T09:21:31;10.50;99.90
18934;DHT22;9599;53.706;10.384;2022-12-29T09:23:59;10.40;99.90
18934;DHT22;9599;53.706;10.384;2022-12-29T09:26:26;10.40;99.90
18934;DHT22;9599;53.706;10.384;2022-12-29T09:28:54;10.50;99.90
18934;DHT22;9599;53.706;10.384;2022-12-29T09:31:23;10.50;99.90
18934;DHT22;9599;53.706;10.384;2022-12-29T09:33:51;10.40;99.90
18934;DHT22;9599;53.706;10.384;2022-12-29T09:36:20;10.40;99.90
18934;DHT22;9599;53.706;10.384;2022-12-29T09:38:49;10.50;99.90
18934;DHT22;9599;53.706;10.384;2022-12-29T09:41:22;10.50;99.90
18934;DHT22;9599;53.706;10.384;2022-12-29T09:44:03;10.60;99.90
18934;DHT22;9599;53.706;10.384;2022-12-29T09:46:35;10.50;99.90
18934;DHT22;9599;53.706;10.384;2022-12-29T09:49:20;10.60;99.90
18934;DHT22;9599;53.706;10.384;2022-12-29T09:51:53;10.60;99.90
18934;DHT22;9599;53.706;10.384;2022-12-29T09:54:39;10.60;99.90
18934;DHT22;9599;53.706;10.384;2022-12-29T09:57:21;10.60;99.90
18934;DHT22;9599;53.706;10.384;2022-12-29T09:59:54;10.60;99.90
18934;DHT22;9599;53.706;10.384;2022-12-29T10:02:34;10.60;99.90
18934;DHT22;9599;53.706;10.384;2022-12-29T10:05:16;10.70;99.90
18934;DHT22;9599;53.706;10.384;2022-12-29T10:07:52;10.70;99.90
18934;DHT22;9599;53.706;10.384;2022-12-29T10:10:32;10.70;99.90
18934;DHT22;9599;53.706;10.384;2022-12-29T10:13:18;10.70;99.90
18934;DHT22;9599;53.706;10.384;2022-12-29T10:15:57;10.70;99.90
18934;DHT22;9599;53.706;10.384;2022-12-29T10:18:59;10.80;99.90
18934;DHT22;9599;53.706;10.384;2022-12-29T10:21:37;10.80;99.90
18934;DHT22;9599;53.706;10.384;2022-12-29T10:24:12;10.80;99.90
18934;DHT22;9599;53.706;10.384;2022-12-29T10:26:42;10.90;99.90
18934;DHT22;9599;53.706;10.384;2022-12-29T10:29:16;10.90;99.90
18934;DHT22;9599;53.706;10.384;2022-12-29T10:31:48;10.90;99.90
18934;DHT22;9599;53.706;10.384;2022-12-29T10:34:21;10.90;99.90
18934;DHT22;9599;53.706;10.384;2022-12-29T10:36:52;10.80;99.90
18934;DHT22;9599;53.706;10.384;2022-12-29T10:39:30;10.90;99.90
18934;DHT22;9599;53.706;10.384;2022-12-29T10:42:04;10.80;99.90
18934;DHT22;9599;53.706;10.384;2022-12-29T10:44:37;10.80;99.90
18934;DHT22;9599;53.706;10.384;2022-12-29T10:47:09;10.80;99.90
18934;DHT22;9599;53.706;10.384;2022-12-29T10:49:41;10.80;99.90
18934;DHT22;9599;53.706;10.384;2022-12-29T10:52:10;10.70;99.90
18934;DHT22;9599;53.706;10.384;2022-12-29T10:54:45;10.70;99.90
18934;DHT22;9599;53.706;10.384;2022-12-29T10:57:25;10.70;99.90
18934;DHT22;9599;53.706;10.384;2022-12-29T10:59:54;10.80;99.90
18934;DHT22;9599;53.706;10.384;2022-12-29T11:02:36;10.80;99.90
18934;DHT22;9599;53.706;10.384;2022-12-29T11:05:16;10.80;99.90
18934;DHT22;9599;53.706;10.384;2022-12-29T11:07:47;10.80;99.90
18934;DHT22;9599;53.706;10.384;2022-12-29T11:10:20;10.80;99.90
18934;DHT22;9599;53.706;10.384;2022-12-29T11:12:56;10.80;99.90
18934;DHT22;9599;53.706;10.384;2022-12-29T11:15:24;10.70;99.90
18934;DHT22;9599;53.706;10.384;2022-12-29T11:17:53;10.60;99.90
18934;DHT22;9599;53.706;10.384;2022-12-29T11:20:29;10.60;99.90
18934;DHT22;9599;53.706;10.384;2022-12-29T11:22:59;10.60;99.90
18934;DHT22;9599;53.706;10.384;2022-12-29T11:25:28;10.60;99.90
18934;DHT22;9599;53.706;10.384;2022-12-29T11:27:58;10.60;99.90
18934;DHT22;9599;53.706;10.384;2022-12-29T11:30:28;10.60;99.90
18934;DHT22;9599;53.706;10.384;2022-12-29T11:32:57;10.60;99.90
18934;DHT22;9599;53.706;10.384;2022-12-29T11:35:36;10.60;99.90
18934;DHT22;9599;53.706;10.384;2022-12-29T11:38:16;10.60;99.90
18934;DHT22;9599;53.706;10.384;2022-12-29T11:40:48;10.70;99.90
18934;DHT22;9599;53.706;10.384;2022-12-29T11:43:21;10.70;99.90
18934;DHT22;9599;53.706;10.384;2022-12-29T11:45:52;10.80;99.90
18934;DHT22;9599;53.706;10.384;2022-12-29T11:48:21;10.90;99.90
18934;DHT22;9599;53.706;10.384;2022-12-29T11:50:53;10.90;99.90
18934;DHT22;9599;53.706;10.384;2022-12-29T11:53:23;11.00;99.90
18934;DHT22;9599;53.706;10.384;2022-12-29T11:55:56;10.90;99.90
18934;DHT22;9599;53.706;10.384;2022-12-29T11:58:30;11.00;99.90
18934;DHT22;9599;53.706;10.384;2022-12-29T12:01:01;11.00;99.90
18934;DHT22;9599;53.706;10.384;2022-12-29T12:03:32;11.00;99.90
18934;DHT22;9599;53.706;10.384;2022-12-29T12:06:03;11.00;99.90
18934;DHT22;9599;53.706;10.384;2022-12-29T12:08:34;11.00;99.90
18934;DHT22;9599;53.706;10.384;2022-12-29T12:11:10;10.90;99.90
18934;DHT22;9599;53.706;10.384;2022-12-29T12:13:43;10.90;99.90
18934;DHT22;9599;53.706;10.384;2022-12-29T12:16:16;10.90;99.90
18934;DHT22;9599;53.706;10.384;2022-12-29T12:18:51;10.80;99.90
18934;DHT22;9599;53.706;10.384;2022-12-29T12:21:25;10.80;99.90
18934;DHT22;9599;53.706;10.384;2022-12-29T12:24:22;10.80;99.90
18934;DHT22;9599;53.706;10.384;2022-12-29T12:26:58;10.90;99.90
18934;DHT22;9599;53.706;10.384;2022-12-29T12:29:35;10.90;99.90
18934;DHT22;9599;53.706;10.384;2022-12-29T12:32:12;10.80;99.90
18934;DHT22;9599;53.706;10.384;2022-12-29T12:34:44;10.70;99.90
18934;DHT22;9599;53.706;10.384;2022-12-29T12:37:27;10.80;99.90
18934;DHT22;9599;53.706;10.384;2022-12-29T12:40:11;10.80;99.90
18934;DHT22;9599;53.706;10.384;2022-12-29T12:42:49;10.90;99.90
18934;DHT22;9599;53.706;10.384;2022-12-29T12:45:36;10.90;99.90
18934;DHT22;9599;53.706;10.384;2022-12-29T12:48:29;11.00;99.90
18934;DHT22;9599;53.706;10.384;2022-12-29T12:51:08;10.90;99.90
18934;DHT22;9599;53.706;10.384;2022-12-29T12:53:56;10.80;99.90
18934;DHT22;9599;53.706;10.384;2022-12-29T12:56:47;10.80;99.90
18934;DHT22;9599;53.706;10.384;2022-12-29T12:59:30;10.90;99.90
18934;DHT22;9599;53.706;10.384;2022-12-29T13:02:09;10.80;99.90
18934;DHT22;9599;53.706;10.384;2022-12-29T13:04:56;10.80;99.90
18934;DHT22;9599;53.706;10.384;2022-12-29T13:07:37;10.70;99.90
18934;DHT22;9599;53.706;10.384;2022-12-29T13:10:22;10.70;99.90
18934;DHT22;9599;53.706;10.384;2022-12-29T13:13:05;10.70;99.90
18934;DHT22;9599;53.706;10.384;2022-12-29T13:15:45;10.70;99.90
18934;DHT22;9599;53.706;10.384;2022-12-29T13:18:22;10.80;99.90
18934;DHT22;9599;53.706;10.384;2022-12-29T13:20:57;10.80;99.90
18934;DHT22;9599;53.706;10.384;2022-12-29T13:23:35;10.70;99.90
18934;DHT22;9599;53.706;10.384;2022-12-29T13:26:10;10.70;99.90
18934;DHT22;9599;53.706;10.384;2022-12-29T13:28:48;10.80;99.90
18934;DHT22;9599;53.706;10.384;2022-12-29T13:31:27;10.80;99.90
18934;DHT22;9599;53.706;10.384;2022-12-29T13:34:03;10.70;99.90
18934;DHT22;9599;53.706;10.384;2022-12-29T13:36:36;10.80;99.90
18934;DHT22;9599;53.706;10.384;2022-12-29T13:39:12;10.70;99.90
18934;DHT22;9599;53.706;10.384;2022-12-29T13:41:49;10.70;99.90
18934;DHT22;9599;53.706;10.384;2022-12-29T13:44:22;10.60;99.90
18934;DHT22;9599;53.706;10.384;2022-12-29T13:46:53;10.60;99.90
18934;DHT22;9599;53.706;10.384;2022-12-29T13:49:22;10.50;99.90
18934;DHT22;9599;53.706;10.384;2022-12-29T13:51:54;10.50;99.90
18934;DHT22;9599;53.706;10.384;2022-12-29T13:54:30;10.30;99.90
18934;DHT22;9599;53.706;10.384;2022-12-29T13:57:08;10.20;99.90
18934;DHT22;9599;53.706;10.384;2022-12-29T13:59:42;10.00;99.90
18934;DHT22;9599;53.706;10.384;2022-12-29T14:02:21;10.00;99.90
18934;DHT22;9599;53.706;10.384;2022-12-29T14:04:57;9.90;99.90
18934;DHT22;9599;53.706;10.384;2022-12-29T14:07:26;9.90;99.90
18934;DHT22;9599;53.706;10.384;2022-12-29T14:09:55;9.90;99.90
18934;DHT22;9599;53.706;10.384;2022-12-29T14:12:31;9.80;99.90
18934;DHT22;9599;53.706;10.384;2022-12-29T14:15:19;9.80;99.90
18934;DHT22;9599;53.706;10.384;2022-12-29T14:18:09;9.70;99.90
18934;DHT22;9599;53.706;10.384;2022-12-29T14:20:39;9.70;99.90
18934;DHT22;9599;53.706;10.384;2022-12-29T14:23:27;9.70;99.90
18934;DHT22;9599;53.706;10.384;2022-12-29T14:26:11;9.70;99.90
18934;DHT22;9599;53.706;10.384;2022-12-29T14:28:40;9.60;99.90
18934;DHT22;9599;53.706;10.384;2022-12-29T14:31:35;9.50;99.90
18934;DHT22;9599;53.706;10.384;2022-12-29T14:34:29;9.40;99.90
18934;DHT22;9599;53.706;10.384;2022-12-29T14:36:59;9.30;99.90
18934;DHT22;9599;53.706;10.384;2022-12-29T14:39:32;9.10;99.90
18934;DHT22;9599;53.706;10.384;2022-12-29T14:42:03;9.00;99.90
18934;DHT22;9599;53.706;10.384;2022-12-29T14:44:32;9.00;99.90
18934;DHT22;9599;53.706;10.384;2022-12-29T14:47:04;8.80;99.90
18934;DHT22;9599;53.706;10.384;2022-12-29T14:49:42;8.80;99.90
18934;DHT22;9599;53.706;10.384;2022-12-29T14:52:17;8.80;99.90
18934;DHT22;9599;53.706;10.384;2022-12-29T14:54:49;8.80;99.90
18934;DHT22;9599;53.706;10.384;2022-12-29T14:57:27;8.70;99.90
18934;DHT22;9599;53.706;10.384;2022-12-29T14:59:58;8.70;99.90
18934;DHT22;9599;53.706;10.384;2022-12-29T15:02:36;8.80;99.90
18934;DHT22;9599;53.706;10.384;2022-12-29T15:05:23;8.80;99.90
18934;DHT22;9599;53.706;10.384;2022-12-29T15:07:53;8.70;99.90
18934;DHT22;9599;53.706;10.384;2022-12-29T15:10:21;8.70;99.90
18934;DHT22;9599;53.706;10.384;2022-12-29T15:12:53;8.70;99.90
18934;DHT22;9599;53.706;10.384;2022-12-29T15:15:23;8.60;99.90
18934;DHT22;9599;53.706;10.384;2022-12-29T15:17:52;8.60;99.90
18934;DHT22;9599;53.706;10.384;2022-12-29T15:20:26;8.60;99.90
18934;DHT22;9599;53.706;10.384;2022-12-29T15:22:56;8.50;99.90
18934;DHT22;9599;53.706;10.384;2022-12-29T15:25:25;8.50;99.90
18934;DHT22;9599;53.706;10.384;2022-12-29T15:27:55;8.50;99.90
18934;DHT22;9599;53.706;10.384;2022-12-29T15:30:24;8.50;99.90
18934;DHT22;9599;53.706;10.384;2022-12-29T15:32:52;8.50;99.90
18934;DHT22;9599;53.706;10.384;2022-12-29T15:35:28;8.50;99.90
18934;DHT22;9599;53.706;10.384;2022-12-29T15:37:57;8.50;99.90
18934;DHT22;9599;53.706;10.384;2022-12-29T15:40:27;8.40;99.90
18934;DHT22;9599;53.706;10.384;2022-12-29T15:43:06;8.50;99.90
18934;DHT22;9599;53.706;10.384;2022-12-29T15:45:38;8.40;99.90
18934;DHT22;9599;53.706;10.384;2022-12-29T15:48:13;8.40;99.90
18934;DHT22;9599;53.706;10.384;2022-12-29T15:50:45;8.40;99.90
18934;DHT22;9599;53.706;10.384;2022-12-29T15:53:19;8.40;99.90
18934;DHT22;9599;53.706;10.384;2022-12-29T15:55:51;8.50;99.90
18934;DHT22;9599;53.706;10.384;2022-12-29T15:58:29;8.50;99.90
18934;DHT22;9599;53.706;10.384;2022-12-29T16:00:58;8.50;99.90
18934;DHT22;9599;53.706;10.384;2022-12-29T16:03:29;8.50;99.90
18934;DHT22;9599;53.706;10.384;2022-12-29T16:06:09;8.60;99.90
18934;DHT22;9599;53.706;10.384;2022-12-29T16:08:39;8.70;99.90
18934;DHT22;9599;53.706;10.384;2022-12-29T16:11:21;8.70;99.90
18934;DHT22;9599;53.706;10.384;2022-12-29T16:13:52;8.70;99.90
18934;DHT22;9599;53.706;10.384;2022-12-29T16:16:26;8.80;99.90
18934;DHT22;9599;53.706;10.384;2022-12-29T16:18:55;8.70;99.90